createdAt,value
2018-07-14T00:00:59.122Z,99.90
2018-07-14T00:02:02.883Z,99.90
2018-07-14T00:03:06.688Z,99.90
2018-07-14T00:04:10.444Z,99.90
2018-07-14T00:05:14.279Z,99.90
2018-07-14T00:06:18.047Z,99.90
2018-07-14T00:07:21.985Z,99.90
2018-07-14T00:08:25.733Z,99.90
2018-07-14T00:10:32.881Z,99.90
2018-07-14T00:11:36.621Z,99.90
2018-07-14T00:12:40.537Z,99.90
2018-07-14T00:13:44.274Z,99.90
2018-07-14T00:14:48.075Z,99.90
2018-07-14T00:15:51.826Z,99.90
2018-07-14T00:16:55.558Z,99.90
2018-07-14T00:17:59.370Z,99.90
2018-07-14T00:19:03.106Z,99.90
2018-07-14T00:20:07.000Z,99.90
2018-07-14T00:21:10.722Z,99.90
2018-07-14T00:22:14.491Z,99.90
2018-07-14T00:23:18.252Z,99.90
2018-07-14T00:24:22.099Z,99.90
2018-07-14T00:25:31.203Z,99.90
2018-07-14T00:26:34.914Z,99.90
2018-07-14T00:27:38.698Z,99.90
2018-07-14T00:28:42.457Z,99.90
2018-07-14T00:29:46.157Z,99.90
2018-07-14T00:31:53.323Z,99.90
2018-07-14T00:32:57.047Z,99.90
2018-07-14T00:34:00.810Z,99.90
2018-07-14T00:35:04.618Z,99.90
2018-07-14T00:36:08.355Z,99.90
2018-07-14T00:37:12.167Z,99.90
2018-07-14T00:38:15.973Z,99.90
2018-07-14T00:39:19.729Z,99.90
2018-07-14T00:40:23.566Z,99.90
2018-07-14T00:43:34.018Z,99.90
2018-07-14T00:44:37.815Z,99.90
2018-07-14T00:45:41.643Z,99.90
2018-07-14T00:46:45.408Z,99.90
2018-07-14T00:47:49.216Z,99.90
2018-07-14T00:48:53.016Z,99.90
2018-07-14T00:49:56.807Z,99.90
2018-07-14T00:51:00.547Z,99.90
2018-07-14T00:52:04.531Z,99.90
2018-07-14T00:54:11.651Z,99.90
2018-07-14T00:55:15.329Z,99.90
2018-07-14T00:56:19.101Z,99.90
2018-07-14T00:57:22.878Z,99.90
2018-07-14T00:58:26.529Z,99.90
2018-07-14T00:59:30.297Z,99.90
2018-07-14T01:00:34.177Z,99.90
2018-07-14T01:01:37.999Z,99.90
2018-07-14T01:02:41.674Z,99.90
2018-07-14T01:04:48.768Z,99.90
2018-07-14T01:05:52.599Z,99.90
2018-07-14T01:06:56.315Z,99.90
2018-07-14T01:09:03.648Z,99.90
2018-07-14T01:10:07.383Z,99.90
2018-07-14T01:11:11.304Z,99.90
2018-07-14T01:13:18.360Z,99.90
2018-07-14T01:14:22.134Z,99.90
2018-07-14T01:15:25.909Z,99.90
2018-07-14T01:16:29.699Z,99.90
2018-07-14T01:17:33.506Z,99.90
2018-07-14T01:18:37.239Z,99.90
2018-07-14T01:19:41.197Z,99.90
2018-07-14T01:20:44.969Z,99.90
2018-07-14T01:21:48.726Z,99.90
2018-07-14T01:23:55.965Z,99.90
2018-07-14T01:24:59.713Z,99.90
2018-07-14T01:27:06.884Z,99.90
2018-07-14T01:28:10.680Z,99.90
2018-07-14T01:29:15.365Z,99.90
2018-07-14T01:30:19.185Z,99.90
2018-07-14T01:31:22.977Z,99.90
2018-07-14T01:32:26.640Z,99.90
2018-07-14T01:33:30.432Z,99.90
2018-07-14T01:34:34.216Z,99.90
2018-07-14T01:35:37.921Z,99.90
2018-07-14T01:36:41.628Z,99.90
2018-07-14T01:37:45.494Z,99.90
2018-07-14T01:38:49.211Z,99.90
2018-07-14T01:39:53.007Z,99.90
2018-07-14T01:40:56.780Z,99.90
2018-07-14T01:42:00.490Z,99.90
2018-07-14T01:43:04.358Z,99.90
2018-07-14T01:44:08.114Z,99.90
2018-07-14T01:45:11.995Z,99.90
2018-07-14T01:46:15.796Z,99.90
2018-07-14T01:47:19.467Z,99.90
2018-07-14T01:48:23.250Z,99.90
2018-07-14T01:49:27.102Z,99.90
2018-07-14T01:50:30.877Z,99.90
2018-07-14T01:51:34.656Z,99.90
2018-07-14T01:52:38.469Z,99.90
2018-07-14T01:53:42.219Z,99.90
2018-07-14T01:54:46.242Z,99.90
2018-07-14T01:55:50.144Z,99.90
2018-07-14T01:56:53.978Z,99.90
2018-07-14T01:57:57.748Z,99.90
2018-07-14T01:59:01.545Z,99.90
2018-07-14T02:00:05.394Z,99.90
2018-07-14T02:01:09.646Z,99.90
2018-07-14T02:02:13.470Z,99.90
2018-07-14T02:03:17.251Z,99.90
2018-07-14T02:04:21.073Z,99.90
2018-07-14T02:05:24.863Z,99.90
2018-07-14T02:06:28.673Z,99.90
2018-07-14T02:07:32.470Z,99.90
2018-07-14T02:08:36.142Z,99.90
2018-07-14T02:09:40.020Z,99.90
2018-07-14T02:10:43.725Z,99.90
2018-07-14T02:11:47.580Z,99.90
2018-07-14T02:12:51.308Z,99.90
2018-07-14T02:13:55.090Z,99.90
2018-07-14T02:14:58.976Z,99.90
2018-07-14T02:16:02.575Z,99.90
2018-07-14T02:17:06.354Z,99.90
2018-07-14T02:18:10.192Z,99.90
2018-07-14T02:19:13.979Z,99.90
2018-07-14T02:20:17.711Z,99.90
2018-07-14T02:21:21.434Z,99.90
2018-07-14T02:22:25.245Z,99.90
2018-07-14T02:23:29.007Z,99.90
2018-07-14T02:24:32.787Z,99.90
2018-07-14T02:25:36.634Z,99.90
2018-07-14T02:26:40.397Z,99.90
2018-07-14T02:27:44.202Z,99.90
2018-07-14T02:28:48.238Z,99.90
2018-07-14T02:29:51.994Z,99.90
2018-07-14T02:30:55.744Z,99.90
2018-07-14T02:31:59.478Z,99.90
2018-07-14T02:33:03.342Z,99.90
2018-07-14T02:35:10.567Z,99.90
2018-07-14T02:36:14.422Z,99.90
2018-07-14T02:37:18.095Z,99.90
2018-07-14T02:38:21.863Z,99.90
2018-07-14T02:39:25.620Z,99.90
2018-07-14T02:40:29.348Z,99.90
2018-07-14T02:41:33.089Z,99.90
2018-07-14T02:42:36.824Z,99.90
2018-07-14T02:43:40.618Z,99.90
2018-07-14T02:44:44.466Z,99.90
2018-07-14T02:45:48.319Z,99.90
2018-07-14T02:46:52.056Z,99.90
2018-07-14T02:47:55.880Z,99.90
2018-07-14T02:48:59.547Z,99.90
2018-07-14T02:50:03.348Z,99.90
2018-07-14T02:51:07.304Z,99.90
2018-07-14T02:52:11.225Z,99.90
2018-07-14T02:53:14.977Z,99.90
2018-07-14T02:54:18.858Z,99.90
2018-07-14T02:56:25.924Z,99.90
2018-07-14T02:57:29.652Z,99.90
2018-07-14T02:58:33.389Z,99.90
2018-07-14T02:59:37.169Z,99.90
2018-07-14T03:00:41.127Z,99.90
2018-07-14T03:01:44.911Z,99.90
2018-07-14T03:02:48.648Z,99.90
2018-07-14T03:03:52.490Z,99.90
2018-07-14T03:04:56.312Z,99.90
2018-07-14T03:06:00.013Z,99.90
2018-07-14T03:08:07.218Z,99.90
2018-07-14T03:09:11.042Z,99.90
2018-07-14T03:10:14.909Z,99.90
2018-07-14T03:11:18.640Z,99.90
2018-07-14T03:12:22.456Z,99.90
2018-07-14T03:13:32.738Z,99.90
2018-07-14T03:14:36.556Z,99.90
2018-07-14T03:15:40.417Z,99.90
2018-07-14T03:16:44.265Z,99.90
2018-07-14T03:17:48.116Z,99.90
2018-07-14T03:18:51.843Z,99.90
2018-07-14T03:19:55.602Z,99.90
2018-07-14T03:20:59.358Z,99.90
2018-07-14T03:22:03.351Z,99.90
2018-07-14T03:23:07.248Z,99.90
2018-07-14T03:24:11.082Z,99.90
2018-07-14T03:25:14.804Z,99.90
2018-07-14T03:26:18.578Z,99.90
2018-07-14T03:28:25.746Z,99.90
2018-07-14T03:29:29.550Z,99.90
2018-07-14T03:30:33.342Z,99.90
2018-07-14T03:31:37.072Z,99.90
2018-07-14T03:32:40.990Z,99.90
2018-07-14T03:33:44.747Z,99.90
2018-07-14T03:35:51.920Z,99.90
2018-07-14T03:37:58.940Z,99.90
2018-07-14T03:39:02.762Z,99.90
2018-07-14T03:40:06.705Z,99.90
2018-07-14T03:41:10.481Z,99.90
2018-07-14T03:42:14.257Z,99.90
2018-07-14T03:43:17.947Z,99.90
2018-07-14T03:44:21.728Z,99.90
2018-07-14T03:45:25.521Z,99.90
2018-07-14T03:46:29.334Z,99.90
2018-07-14T03:47:32.991Z,99.90
2018-07-14T03:48:36.750Z,99.90
2018-07-14T03:50:43.895Z,99.90
2018-07-14T03:51:47.601Z,99.90
2018-07-14T03:52:51.696Z,99.90
2018-07-14T03:53:55.570Z,99.90
2018-07-14T03:54:59.249Z,99.90
2018-07-14T03:56:02.924Z,99.90
2018-07-14T03:57:06.645Z,99.90
2018-07-14T03:58:10.400Z,99.90
2018-07-14T03:59:14.163Z,99.90
2018-07-14T04:00:17.853Z,99.90
2018-07-14T04:01:21.714Z,99.90
2018-07-14T04:02:25.400Z,99.90
2018-07-14T04:04:32.360Z,99.90
2018-07-14T04:07:42.921Z,99.90
2018-07-14T04:08:46.706Z,99.90
2018-07-14T04:10:53.849Z,99.90
2018-07-14T04:11:57.669Z,99.90
2018-07-14T04:14:04.910Z,99.90
2018-07-14T04:15:08.673Z,99.90
2018-07-14T04:17:15.906Z,99.90
2018-07-14T04:18:19.578Z,99.90
2018-07-14T04:19:23.287Z,99.90
2018-07-14T04:20:27.033Z,99.90
2018-07-14T04:21:30.888Z,99.90
2018-07-14T04:22:34.625Z,99.90
2018-07-14T04:23:38.378Z,99.90
2018-07-14T04:24:42.096Z,99.90
2018-07-14T04:25:45.975Z,99.90
2018-07-14T04:26:49.826Z,99.90
2018-07-14T04:27:53.604Z,99.90
2018-07-14T04:30:00.628Z,99.90
2018-07-14T04:31:04.225Z,99.90
2018-07-14T04:32:07.947Z,99.90
2018-07-14T04:33:11.677Z,99.90
2018-07-14T04:34:15.311Z,99.90
2018-07-14T04:35:19.059Z,99.90
2018-07-14T04:37:26.131Z,99.90
2018-07-14T04:38:29.952Z,99.90
2018-07-14T04:39:33.672Z,99.90
2018-07-14T04:40:37.363Z,99.90
2018-07-14T04:41:41.053Z,99.90
2018-07-14T04:42:44.829Z,99.90
2018-07-14T04:43:48.625Z,99.90
2018-07-14T04:44:52.280Z,99.90
2018-07-14T04:45:55.926Z,99.90
2018-07-14T04:46:59.537Z,99.90
2018-07-14T04:48:03.242Z,99.90
2018-07-14T04:49:07.029Z,99.90
2018-07-14T04:50:10.865Z,99.90
2018-07-14T04:51:14.520Z,99.90
2018-07-14T04:52:18.267Z,99.90
2018-07-14T04:53:22.009Z,99.90
2018-07-14T04:54:25.725Z,99.90
2018-07-14T04:56:32.909Z,99.90
2018-07-14T04:58:39.995Z,99.90
2018-07-14T04:59:43.763Z,99.90
2018-07-14T05:00:47.497Z,99.90
2018-07-14T05:01:51.279Z,99.90
2018-07-14T05:02:54.981Z,99.90
2018-07-14T05:05:01.901Z,99.90
2018-07-14T05:06:05.733Z,99.90
2018-07-14T05:07:09.471Z,99.90
2018-07-14T05:08:13.152Z,99.90
2018-07-14T05:09:16.824Z,99.90
2018-07-14T05:11:23.889Z,99.90
2018-07-14T05:12:27.498Z,99.90
2018-07-14T05:13:31.117Z,99.90
2018-07-14T05:14:34.896Z,99.90
2018-07-14T05:15:38.649Z,99.90
2018-07-14T05:16:42.329Z,99.90
2018-07-14T05:17:46.026Z,99.90
2018-07-14T05:18:49.781Z,99.90
2018-07-14T05:19:53.460Z,99.90
2018-07-14T05:20:57.162Z,99.90
2018-07-14T05:22:00.912Z,99.90
2018-07-14T05:23:04.632Z,99.90
2018-07-14T05:25:11.823Z,99.90
2018-07-14T05:26:15.528Z,99.90
2018-07-14T05:27:19.206Z,99.90
2018-07-14T05:29:26.298Z,99.90
2018-07-14T05:30:30.035Z,99.90
2018-07-14T05:31:33.858Z,99.90
2018-07-14T05:32:37.594Z,99.90
2018-07-14T05:33:41.271Z,99.90
2018-07-14T05:34:45.018Z,99.90
2018-07-14T05:35:48.732Z,99.90
2018-07-14T05:36:52.373Z,99.90
2018-07-14T05:37:56.104Z,99.90
2018-07-14T05:38:59.811Z,99.90
2018-07-14T05:41:06.997Z,99.90
2018-07-14T05:42:10.653Z,99.90
2018-07-14T05:43:14.275Z,99.90
2018-07-14T05:44:18.008Z,99.90
2018-07-14T05:45:21.745Z,99.90
2018-07-14T05:46:25.405Z,99.90
2018-07-14T05:47:29.096Z,99.90
2018-07-14T05:48:32.738Z,99.90
2018-07-14T05:49:36.426Z,99.90
2018-07-14T05:50:40.132Z,99.90
2018-07-14T05:51:43.838Z,99.90
2018-07-14T05:52:47.531Z,99.90
2018-07-14T05:53:51.245Z,99.90
2018-07-14T05:55:58.392Z,99.90
2018-07-14T05:57:02.137Z,99.90
2018-07-14T05:58:05.842Z,99.90
2018-07-14T05:59:09.572Z,99.90
2018-07-14T06:00:13.230Z,99.90
2018-07-14T06:01:16.835Z,99.90
2018-07-14T06:02:20.442Z,99.90
2018-07-14T06:03:24.142Z,99.90
2018-07-14T06:05:31.249Z,99.90
2018-07-14T06:06:34.976Z,99.90
2018-07-14T06:07:38.782Z,99.90
2018-07-14T06:08:42.530Z,99.90
2018-07-14T06:09:46.366Z,99.90
2018-07-14T06:10:50.137Z,99.90
2018-07-14T06:11:53.787Z,99.90
2018-07-14T06:12:57.476Z,99.90
2018-07-14T06:14:01.278Z,99.90
2018-07-14T06:15:05.184Z,99.90
2018-07-14T06:17:12.312Z,99.90
2018-07-14T06:18:15.969Z,99.90
2018-07-14T06:19:19.858Z,99.90
2018-07-14T06:20:23.651Z,99.90
2018-07-14T06:21:27.406Z,99.90
2018-07-14T06:22:31.065Z,99.90
2018-07-14T06:23:34.776Z,99.90
2018-07-14T06:25:41.922Z,99.90
2018-07-14T06:26:45.766Z,99.90
2018-07-14T06:27:49.401Z,99.90
2018-07-14T06:29:56.816Z,99.90
2018-07-14T06:31:00.585Z,99.90
2018-07-14T06:32:04.313Z,99.90
2018-07-14T06:33:10.972Z,99.90
2018-07-14T06:34:15.015Z,99.90
2018-07-14T06:35:18.809Z,99.90
2018-07-14T06:36:22.505Z,99.90
2018-07-14T06:37:26.388Z,99.90
2018-07-14T06:38:30.243Z,99.90
2018-07-14T06:39:34.095Z,99.90
2018-07-14T06:40:37.846Z,99.90
2018-07-14T06:41:41.553Z,99.90
2018-07-14T06:42:45.555Z,99.90
2018-07-14T06:43:49.400Z,99.90
2018-07-14T06:44:53.200Z,99.90
2018-07-14T06:45:56.851Z,99.90
2018-07-14T06:47:00.572Z,99.90
2018-07-14T06:48:04.404Z,99.90
2018-07-14T06:49:08.297Z,99.90
2018-07-14T06:50:12.380Z,99.90
2018-07-14T06:51:16.095Z,99.90
2018-07-14T06:52:19.901Z,99.90
2018-07-14T06:53:23.780Z,99.90
2018-07-14T06:54:27.618Z,99.90
2018-07-14T06:55:31.543Z,99.90
2018-07-14T06:56:35.362Z,99.90
2018-07-14T06:57:39.218Z,99.90
2018-07-14T06:58:43.026Z,99.90
2018-07-14T06:59:46.943Z,99.90
2018-07-14T07:00:50.688Z,99.90
2018-07-14T07:01:54.518Z,99.90
2018-07-14T07:02:58.326Z,99.90
2018-07-14T07:04:02.216Z,99.90
2018-07-14T07:05:06.011Z,99.90
2018-07-14T07:06:09.902Z,99.90
2018-07-14T07:07:13.693Z,99.90
2018-07-14T07:09:20.906Z,99.90
2018-07-14T07:10:24.692Z,99.90
2018-07-14T07:11:28.523Z,99.90
2018-07-14T07:13:35.743Z,99.90
2018-07-14T07:14:39.665Z,99.90
2018-07-14T07:15:43.569Z,99.90
2018-07-14T07:16:47.545Z,99.90
2018-07-14T07:17:51.311Z,99.90
2018-07-14T07:18:55.224Z,99.90
2018-07-14T07:19:59.039Z,99.90
2018-07-14T07:21:02.828Z,99.90
2018-07-14T07:22:06.667Z,99.90
2018-07-14T07:23:10.520Z,99.90
2018-07-14T07:24:14.381Z,99.90
2018-07-14T07:26:21.603Z,99.90
2018-07-14T07:27:25.420Z,99.90
2018-07-14T07:28:29.335Z,99.90
2018-07-14T07:29:33.223Z,99.90
2018-07-14T07:30:36.972Z,99.90
2018-07-14T07:31:40.863Z,99.90
2018-07-14T07:32:51.048Z,99.90
2018-07-14T07:33:55.107Z,99.90
2018-07-14T07:34:58.798Z,99.90
2018-07-14T07:36:02.483Z,99.90
2018-07-14T07:37:06.595Z,99.90
2018-07-14T07:38:10.274Z,99.90
2018-07-14T07:39:14.079Z,99.90
2018-07-14T07:40:17.813Z,99.90
2018-07-14T07:41:21.529Z,99.90
2018-07-14T07:42:25.247Z,99.90
2018-07-14T07:43:29.017Z,99.90
2018-07-14T07:45:36.206Z,99.90
2018-07-14T07:46:46.475Z,99.90
2018-07-14T07:47:50.281Z,99.90
2018-07-14T07:48:53.960Z,99.90
2018-07-14T07:51:01.088Z,99.90
2018-07-14T07:52:04.876Z,99.90
2018-07-14T07:53:08.615Z,99.90
2018-07-14T07:55:15.737Z,99.90
2018-07-14T07:56:19.499Z,99.90
2018-07-14T07:58:26.670Z,99.90
2018-07-14T08:00:33.909Z,99.90
2018-07-14T08:01:37.657Z,99.90
2018-07-14T08:03:44.783Z,99.90
2018-07-14T08:04:48.526Z,99.90
2018-07-14T08:06:55.610Z,99.90
2018-07-14T08:09:02.623Z,99.90
2018-07-14T08:10:06.452Z,99.90
2018-07-14T08:11:10.133Z,99.90
2018-07-14T08:12:13.813Z,99.90
2018-07-14T08:13:17.556Z,99.90
2018-07-14T08:14:21.355Z,99.90
2018-07-14T08:15:25.176Z,99.90
2018-07-14T08:16:28.839Z,99.90
2018-07-14T08:17:32.519Z,99.90
2018-07-14T08:18:36.349Z,99.90
2018-07-14T08:19:40.005Z,99.90
2018-07-14T08:21:47.209Z,99.90
2018-07-14T08:22:51.556Z,99.90
2018-07-14T08:23:55.096Z,99.90
2018-07-14T08:24:58.883Z,99.90
2018-07-14T08:26:02.602Z,99.90
2018-07-14T08:27:06.328Z,99.90
2018-07-14T08:28:09.956Z,99.90
2018-07-14T08:29:13.712Z,99.90
2018-07-14T08:30:17.498Z,99.90
2018-07-14T08:31:21.273Z,99.90
2018-07-14T08:33:28.297Z,99.90
2018-07-14T08:34:32.032Z,99.90
2018-07-14T08:36:39.060Z,99.90
2018-07-14T08:37:42.726Z,99.90
2018-07-14T08:38:46.468Z,99.90
2018-07-14T08:39:50.221Z,99.90
2018-07-14T08:40:53.992Z,99.90
2018-07-14T08:41:57.760Z,99.90
2018-07-14T08:44:04.868Z,99.90
2018-07-14T08:46:11.835Z,99.90
2018-07-14T08:47:15.692Z,99.90
2018-07-14T08:48:19.506Z,99.90
2018-07-14T08:49:23.327Z,99.90
2018-07-14T08:50:27.251Z,99.90
2018-07-14T08:51:31.091Z,99.90
2018-07-14T08:52:34.869Z,99.90
2018-07-14T08:53:38.620Z,99.90
2018-07-14T08:54:42.358Z,99.90
2018-07-14T08:55:46.108Z,99.90
2018-07-14T08:56:49.754Z,99.90
2018-07-14T08:57:53.372Z,99.90
2018-07-14T08:58:57.065Z,99.90
2018-07-14T09:00:00.699Z,99.90
2018-07-14T09:01:04.447Z,99.90
2018-07-14T09:02:08.086Z,99.90
2018-07-14T09:03:11.900Z,99.90
2018-07-14T09:04:15.630Z,99.90
2018-07-14T09:05:19.292Z,99.90
2018-07-14T09:06:22.982Z,99.90
2018-07-14T09:07:29.524Z,99.90
2018-07-14T09:08:33.188Z,99.90
2018-07-14T09:09:36.862Z,99.90
2018-07-14T09:10:40.547Z,99.90
2018-07-14T09:11:44.320Z,99.90
2018-07-14T09:12:48.012Z,99.90
2018-07-14T09:13:51.764Z,99.90
2018-07-14T09:14:55.458Z,99.90
2018-07-14T09:15:59.081Z,99.90
2018-07-14T09:17:02.725Z,99.90
2018-07-14T09:18:06.554Z,99.90
2018-07-14T09:19:10.229Z,99.90
2018-07-14T09:21:17.251Z,99.90
2018-07-14T09:22:20.856Z,99.90
2018-07-14T09:23:24.553Z,99.90
2018-07-14T09:24:28.266Z,99.90
2018-07-14T09:25:31.918Z,99.90
2018-07-14T09:26:35.629Z,99.90
2018-07-14T09:27:39.607Z,99.90
2018-07-14T09:28:43.379Z,99.90
2018-07-14T09:30:50.357Z,99.90
2018-07-14T09:31:54.137Z,99.90
2018-07-14T09:32:57.810Z,99.90
2018-07-14T09:34:01.513Z,99.90
2018-07-14T09:35:05.224Z,99.90
2018-07-14T09:36:08.950Z,99.90
2018-07-14T09:37:12.715Z,99.90
2018-07-14T09:38:16.442Z,99.90
2018-07-14T09:39:20.111Z,99.90
2018-07-14T09:40:23.820Z,99.90
2018-07-14T09:41:27.461Z,99.90
2018-07-14T09:42:31.257Z,99.90
2018-07-14T09:43:34.913Z,99.90
2018-07-14T09:44:38.695Z,99.90
2018-07-14T09:45:42.443Z,99.90
2018-07-14T09:46:46.193Z,99.90
2018-07-14T09:47:50.038Z,99.90
2018-07-14T09:48:53.805Z,99.90
2018-07-14T09:49:57.589Z,99.90
2018-07-14T09:51:01.407Z,99.90
2018-07-14T09:52:05.066Z,99.90
2018-07-14T09:53:08.773Z,99.90
2018-07-14T09:54:12.429Z,99.90
2018-07-14T09:55:16.141Z,99.90
2018-07-14T09:56:19.817Z,99.90
2018-07-14T09:57:23.558Z,99.90
2018-07-14T09:58:27.368Z,99.90
2018-07-14T09:59:31.105Z,99.90
2018-07-14T10:00:35.591Z,99.90
2018-07-14T10:01:39.304Z,99.80
2018-07-14T10:02:43.054Z,99.80
2018-07-14T10:03:46.811Z,99.50
2018-07-14T10:04:50.528Z,99.20
2018-07-14T10:05:54.216Z,99.20
2018-07-14T10:06:57.871Z,97.80
2018-07-14T10:08:01.560Z,98.50
2018-07-14T10:10:09.310Z,97.90
2018-07-14T10:11:12.970Z,97.10
2018-07-14T10:12:16.685Z,97.60
2018-07-14T10:13:20.447Z,97.40
2018-07-14T10:14:24.084Z,97.70
2018-07-14T10:15:27.793Z,97.50
2018-07-14T10:16:31.599Z,97.40
2018-07-14T10:18:38.655Z,95.40
2018-07-14T10:19:42.308Z,96.30
2018-07-14T10:20:45.989Z,96.30
2018-07-14T10:22:53.178Z,96.20
2018-07-14T10:23:56.876Z,96.10
2018-07-14T10:25:00.550Z,95.50
2018-07-14T10:26:04.273Z,96.70
2018-07-14T10:27:07.967Z,95.30
2018-07-14T10:28:11.651Z,94.90
2018-07-14T10:29:15.311Z,95.10
2018-07-14T10:30:19.018Z,94.40
2018-07-14T10:31:22.702Z,94.60
2018-07-14T10:33:29.709Z,92.80
2018-07-14T10:34:33.339Z,93.50
2018-07-14T10:35:37.055Z,92.70
2018-07-14T10:36:47.202Z,91.80
2018-07-14T10:37:50.814Z,92.30
2018-07-14T10:38:54.581Z,92.10
2018-07-14T10:39:58.161Z,92.50
2018-07-14T10:41:01.851Z,92.60
2018-07-14T10:42:05.617Z,93.30
2018-07-14T10:44:12.506Z,92.60
2018-07-14T10:45:16.367Z,92.00
2018-07-14T10:46:19.994Z,91.90
2018-07-14T10:47:23.548Z,91.30
2018-07-14T10:48:27.177Z,91.10
2018-07-14T10:49:30.759Z,90.90
2018-07-14T10:50:34.405Z,89.20
2018-07-14T10:51:38.150Z,87.90
2018-07-14T10:52:41.662Z,88.20
2018-07-14T10:53:45.214Z,88.10
2018-07-14T10:54:48.902Z,86.80
2018-07-14T10:55:52.501Z,87.10
2018-07-14T10:56:56.174Z,89.70
2018-07-14T10:57:59.873Z,88.30
2018-07-14T10:59:03.462Z,86.00
2018-07-14T11:00:07.386Z,86.00
2018-07-14T11:01:10.973Z,85.50
2018-07-14T11:02:14.587Z,85.40
2018-07-14T11:03:18.278Z,86.60
2018-07-14T11:04:21.944Z,87.40
2018-07-14T11:05:25.565Z,89.20
2018-07-14T11:06:29.196Z,88.50
2018-07-14T11:07:32.807Z,84.80
2018-07-14T11:08:36.445Z,84.30
2018-07-14T11:09:40.058Z,83.50
2018-07-14T11:10:43.743Z,83.50
2018-07-14T11:11:47.335Z,83.40
2018-07-14T11:12:50.875Z,83.50
2018-07-14T11:13:54.539Z,83.20
2018-07-14T11:14:58.158Z,82.60
2018-07-14T11:16:01.807Z,83.60
2018-07-14T11:17:05.484Z,83.60
2018-07-14T11:18:09.091Z,83.40
2018-07-14T11:19:12.647Z,83.00
2018-07-14T11:20:16.287Z,82.50
2018-07-14T11:21:19.843Z,82.30
2018-07-14T11:22:23.443Z,80.70
2018-07-14T11:23:27.014Z,80.70
2018-07-14T11:24:30.625Z,81.10
2018-07-14T11:25:34.255Z,81.60
2018-07-14T11:26:37.888Z,81.50
2018-07-14T11:27:41.465Z,83.10
2018-07-14T11:28:45.146Z,80.80
2018-07-14T11:29:48.806Z,82.00
2018-07-14T11:31:55.747Z,79.40
2018-07-14T11:32:59.441Z,80.20
2018-07-14T11:34:03.198Z,80.60
2018-07-14T11:35:06.827Z,79.80
2018-07-14T11:36:10.481Z,80.00
2018-07-14T11:37:14.161Z,80.60
2018-07-14T11:39:21.158Z,77.70
2018-07-14T11:40:24.801Z,76.70
2018-07-14T11:41:28.483Z,77.20
2018-07-14T11:42:32.082Z,77.90
2018-07-14T11:43:35.746Z,77.60
2018-07-14T11:44:39.349Z,78.50
2018-07-14T11:45:43.070Z,77.80
2018-07-14T11:46:46.740Z,79.80
2018-07-14T11:47:50.435Z,79.10
2018-07-14T11:48:54.049Z,77.20
2018-07-14T11:49:57.710Z,78.80
2018-07-14T11:51:01.336Z,77.50
2018-07-14T11:52:05.012Z,77.40
2018-07-14T11:53:08.648Z,75.70
2018-07-14T11:54:12.268Z,76.50
2018-07-14T11:55:15.880Z,76.20
2018-07-14T11:56:19.452Z,77.80
2018-07-14T11:57:23.147Z,78.70
2018-07-14T11:58:26.784Z,78.80
2018-07-14T12:01:37.043Z,77.40
2018-07-14T12:02:40.741Z,76.70
2018-07-14T12:03:44.392Z,76.80
2018-07-14T12:04:48.216Z,76.80
2018-07-14T12:05:51.907Z,75.10
2018-07-14T12:06:55.546Z,75.30
2018-07-14T12:07:59.215Z,75.90
2018-07-14T12:09:02.857Z,75.10
2018-07-14T12:10:06.489Z,75.20
2018-07-14T12:11:10.344Z,76.90
2018-07-14T12:12:13.989Z,77.90
2018-07-14T12:13:17.780Z,76.60
2018-07-14T12:15:24.758Z,76.40
2018-07-14T12:17:31.589Z,77.80
2018-07-14T12:18:35.288Z,75.60
2018-07-14T12:19:38.917Z,74.70
2018-07-14T12:20:42.546Z,75.00
2018-07-14T12:21:46.133Z,73.90
2018-07-14T12:22:49.775Z,72.70
2018-07-14T12:23:53.478Z,71.40
2018-07-14T12:24:57.094Z,70.40
2018-07-14T12:26:00.721Z,71.70
2018-07-14T12:27:04.362Z,70.10
2018-07-14T12:29:11.679Z,70.90
2018-07-14T12:30:15.392Z,70.00
2018-07-14T12:31:19.007Z,70.30
2018-07-14T12:32:22.569Z,69.60
2018-07-14T12:33:26.212Z,70.20
2018-07-14T12:34:29.825Z,71.20
2018-07-14T12:35:33.471Z,70.40
2018-07-14T12:36:37.095Z,70.90
2018-07-14T12:37:40.737Z,71.60
2018-07-14T12:38:44.396Z,72.70
2018-07-14T12:39:47.995Z,72.40
2018-07-14T12:40:51.622Z,70.60
2018-07-14T12:41:55.282Z,70.30
2018-07-14T12:42:58.917Z,70.10
2018-07-14T12:44:02.555Z,69.70
2018-07-14T12:45:06.167Z,69.20
2018-07-14T12:46:09.863Z,67.80
2018-07-14T12:47:13.601Z,68.60
2018-07-14T12:48:17.222Z,68.20
2018-07-14T12:49:20.853Z,69.00
2018-07-14T12:50:24.531Z,68.50
2018-07-14T12:51:28.122Z,69.10
2018-07-14T12:52:31.756Z,70.20
2018-07-14T12:53:35.458Z,70.40
2018-07-14T12:54:39.961Z,70.90
2018-07-14T12:56:46.916Z,70.10
2018-07-14T12:57:50.749Z,70.40
2018-07-14T12:58:54.382Z,70.90
2018-07-14T12:59:58.119Z,71.90
2018-07-14T13:01:01.757Z,73.20
2018-07-14T13:02:05.407Z,72.40
2018-07-14T13:04:12.362Z,72.00
2018-07-14T13:05:15.987Z,72.60
2018-07-14T13:08:26.265Z,69.70
2018-07-14T13:09:29.968Z,68.60
2018-07-14T13:10:33.809Z,69.50
2018-07-14T13:11:37.595Z,70.70
2018-07-14T13:12:41.287Z,71.10
2018-07-14T13:13:45.016Z,71.00
2018-07-14T13:14:48.728Z,69.70
2018-07-14T13:15:52.399Z,70.30
2018-07-14T13:16:56.073Z,70.70
2018-07-14T13:17:59.782Z,70.30
2018-07-14T13:19:03.456Z,70.30
2018-07-14T13:20:07.109Z,71.40
2018-07-14T13:21:10.777Z,71.90
2018-07-14T13:22:14.426Z,71.60
2018-07-14T13:23:18.083Z,71.80
2018-07-14T13:24:21.734Z,70.30
2018-07-14T13:26:28.612Z,72.40
2018-07-14T13:27:32.254Z,70.80
2018-07-14T13:28:35.942Z,70.10
2018-07-14T13:29:39.795Z,69.90
2018-07-14T13:31:46.712Z,71.10
2018-07-14T13:32:50.345Z,69.30
2018-07-14T13:33:54.074Z,70.50
2018-07-14T13:34:57.720Z,71.70
2018-07-14T13:36:01.429Z,71.30
2018-07-14T13:37:05.000Z,72.10
2018-07-14T13:38:08.632Z,72.40
2018-07-14T13:40:15.562Z,72.80
2018-07-14T13:41:19.208Z,72.20
2018-07-14T13:46:35.974Z,73.00
2018-07-14T13:47:39.661Z,72.90
2018-07-14T13:48:43.247Z,73.10
2018-07-14T13:49:46.964Z,72.40
2018-07-14T13:50:50.602Z,72.00
2018-07-14T13:51:54.214Z,71.30
2018-07-14T13:52:57.910Z,69.90
2018-07-14T13:54:01.548Z,69.20
2018-07-14T13:55:05.291Z,69.20
2018-07-14T13:56:08.952Z,70.00
2018-07-14T13:57:12.691Z,69.30
2018-07-14T13:58:16.385Z,69.60
2018-07-14T13:59:19.988Z,67.70
2018-07-14T14:00:23.610Z,68.00
2018-07-14T14:01:27.236Z,67.60
2018-07-14T14:02:30.863Z,67.10
2018-07-14T14:03:34.608Z,66.30
2018-07-14T14:05:41.648Z,66.90
2018-07-14T14:06:45.304Z,68.50
2018-07-14T14:07:48.902Z,69.50
2018-07-14T14:08:52.623Z,66.80
2018-07-14T14:09:56.267Z,66.80
2018-07-14T14:10:59.897Z,67.10
2018-07-14T14:12:03.586Z,67.10
2018-07-14T14:13:07.241Z,67.10
2018-07-14T14:14:11.796Z,66.30
2018-07-14T14:15:15.488Z,65.70
2018-07-14T14:16:19.188Z,64.40
2018-07-14T14:17:22.843Z,64.30
2018-07-14T14:18:26.560Z,65.20
2018-07-14T14:19:30.147Z,64.00
2018-07-14T14:20:33.778Z,64.40
2018-07-14T14:21:37.428Z,65.10
2018-07-14T14:22:41.088Z,65.10
2018-07-14T14:23:44.723Z,65.20
2018-07-14T14:24:48.419Z,63.80
2018-07-14T14:25:52.072Z,62.70
2018-07-14T14:26:55.790Z,62.20
2018-07-14T14:27:59.468Z,62.00
2018-07-14T14:29:03.091Z,62.70
2018-07-14T14:30:06.747Z,62.00
2018-07-14T14:31:10.495Z,61.60
2018-07-14T14:32:14.118Z,60.50
2018-07-14T14:33:17.780Z,60.40
2018-07-14T14:34:21.489Z,61.40
2018-07-14T14:35:25.218Z,60.90
2018-07-14T14:36:28.912Z,60.30
2018-07-14T14:37:32.637Z,62.10
2018-07-14T14:38:36.285Z,62.80
2018-07-14T14:39:39.916Z,63.60
2018-07-14T14:40:43.537Z,64.60
2018-07-14T14:41:47.293Z,64.30
2018-07-14T14:42:50.899Z,63.70
2018-07-14T14:43:54.598Z,64.10
2018-07-14T14:46:01.922Z,63.90
2018-07-14T14:47:05.577Z,64.90
2018-07-14T14:48:11.231Z,65.20
2018-07-14T14:49:15.637Z,66.80
2018-07-14T14:50:19.420Z,66.90
2018-07-14T14:51:23.057Z,66.00
2018-07-14T14:53:30.034Z,65.80
2018-07-14T14:54:33.632Z,66.00
2018-07-14T14:55:37.294Z,65.90
2018-07-14T14:56:40.926Z,66.20
2018-07-14T14:57:44.742Z,67.30
2018-07-14T14:58:49.642Z,66.60
2018-07-14T14:59:53.316Z,67.80
2018-07-14T15:02:06.686Z,67.90
2018-07-14T15:03:10.361Z,67.70
2018-07-14T15:04:14.046Z,66.90
2018-07-14T15:05:17.687Z,65.20
2018-07-14T15:06:21.362Z,65.30
2018-07-14T15:07:25.040Z,65.50
2018-07-14T15:08:28.699Z,64.60